sensor_id;sensor_type;location;lat;lon;timestamp;pressure;altitude;pressure_sealevel;temperature;humidity
73700;BME280;62005;50.082;8.988;2023-01-01T00:02:01;100547.63;;;13.40;67.00
73700;BME280;62005;50.082;8.988;2023-01-01T00:04:27;100542.31;;;13.34;66.81
73700;BME280;62005;50.082;8.988;2023-01-01T00:06:53;100523.53;;;13.21;67.33
73700;BME280;62005;50.082;8.988;2023-01-01T00:09:19;100532.97;;;13.18;67.94
73700;BME280;62005;50.082;8.988;2023-01-01T00:12:03;100542.66;;;13.14;67.75
73700;BME280;62005;50.082;8.988;2023-01-01T00:14:29;100539.91;;;13.02;68.14
73700;BME280;62005;50.082;8.988;2023-01-01T00:16:57;100558.69;;;13.04;68.44
73700;BME280;62005;50.082;8.988;2023-01-01T00:19:22;100540.09;;;12.89;68.30
73700;BME280;62005;50.082;8.988;2023-01-01T00:21:48;100546.84;;;12.87;68.32
73700;BME280;62005;50.082;8.988;2023-01-01T00:24:13;100540.31;;;12.76;68.50
73700;BME280;62005;50.082;8.988;2023-01-01T00:26:38;100539.84;;;12.79;69.09
73700;BME280;62005;50.082;8.988;2023-01-01T00:29:04;100533.00;;;12.65;68.94
73700;BME280;62005;50.082;8.988;2023-01-01T00:31:29;100511.50;;;12.52;69.40
73700;BME280;62005;50.082;8.988;2023-01-01T00:33:57;100543.00;;;12.65;69.09
73700;BME280;62005;50.082;8.988;2023-01-01T00:36:25;100528.13;;;12.56;69.31
73700;BME280;62005;50.082;8.988;2023-01-01T00:38:53;100543.09;;;12.58;69.52
73700;BME280;62005;50.082;8.988;2023-01-01T00:41:19;100544.03;;;12.52;69.85
73700;BME280;62005;50.082;8.988;2023-01-01T00:43:44;100552.03;;;12.47;69.57
73700;BME280;62005;50.082;8.988;2023-01-01T00:46:10;100545.41;;;12.43;69.91
73700;BME280;62005;50.082;8.988;2023-01-01T00:48:36;100534.28;;;12.33;69.43
73700;BME280;62005;50.082;8.988;2023-01-01T00:51:02;100531.56;;;12.33;69.83
73700;BME280;62005;50.082;8.988;2023-01-01T00:53:27;100556.72;;;12.40;69.92
73700;BME280;62005;50.082;8.988;2023-01-01T00:59:50;100497.78;;;12.06;69.88
73700;BME280;62005;50.082;8.988;2023-01-01T01:02:45;100517.03;;;12.16;70.03
73700;BME280;62005;50.082;8.988;2023-01-01T01:05:19;100494.72;;;12.03;69.75
73700;BME280;62005;50.082;8.988;2023-01-01T01:08:13;100503.34;;;12.11;70.32
73700;BME280;62005;50.082;8.988;2023-01-01T01:11:25;100489.66;;;12.06;70.37
73700;BME280;62005;50.082;8.988;2023-01-01T01:13:59;100487.28;;;11.98;70.50
73700;BME280;62005;50.082;8.988;2023-01-01T01:17:00;100525.50;;;12.20;70.05
73700;BME280;62005;50.082;8.988;2023-01-01T01:19:30;100551.25;;;12.29;70.49
73700;BME280;62005;50.082;8.988;2023-01-01T01:25:24;100495.16;;;12.00;70.40
73700;BME280;62005;50.082;8.988;2023-01-01T01:31:26;100568.78;;;12.44;70.79
73700;BME280;62005;50.082;8.988;2023-01-01T01:33:52;100533.69;;;12.31;70.59
73700;BME280;62005;50.082;8.988;2023-01-01T01:36:18;100549.66;;;12.39;70.76
73700;BME280;62005;50.082;8.988;2023-01-01T01:38:44;100546.34;;;12.37;70.34
73700;BME280;62005;50.082;8.988;2023-01-01T01:41:11;100555.66;;;12.41;70.87
73700;BME280;62005;50.082;8.988;2023-01-01T01:46:06;100537.31;;;12.25;71.12
73700;BME280;62005;50.082;8.988;2023-01-01T01:48:41;100549.66;;;12.39;70.74
73700;BME280;62005;50.082;8.988;2023-01-01T01:51:07;100556.34;;;12.37;71.04
73700;BME280;62005;50.082;8.988;2023-01-01T01:53:36;100538.06;;;12.32;71.16
73700;BME280;62005;50.082;8.988;2023-01-01T01:56:09;100552.22;;;12.34;71.21
73700;BME280;62005;50.082;8.988;2023-01-01T01:58:37;100541.81;;;12.31;71.42
73700;BME280;62005;50.082;8.988;2023-01-01T02:01:02;100558.81;;;12.38;70.88
73700;BME280;62005;50.082;8.988;2023-01-01T02:03:36;100555.06;;;12.39;71.35
73700;BME280;62005;50.082;8.988;2023-01-01T02:06:05;100545.13;;;12.33;71.08
73700;BME280;62005;50.082;8.988;2023-01-01T02:08:31;100535.97;;;12.34;71.37
73700;BME280;62005;50.082;8.988;2023-01-01T02:10:57;100540.91;;;12.37;71.50
73700;BME280;62005;50.082;8.988;2023-01-01T02:13:23;100532.66;;;12.32;71.83
73700;BME280;62005;50.082;8.988;2023-01-01T02:15:53;100533.81;;;12.36;71.79
73700;BME280;62005;50.082;8.988;2023-01-01T02:18:29;100524.38;;;12.27;71.92
73700;BME280;62005;50.082;8.988;2023-01-01T02:21:11;100539.56;;;12.28;72.53
73700;BME280;62005;50.082;8.988;2023-01-01T02:29:28;100549.38;;;12.29;72.60
73700;BME280;62005;50.082;8.988;2023-01-01T02:35:47;100561.41;;;12.33;73.62
73700;BME280;62005;50.082;8.988;2023-01-01T02:38:16;100552.66;;;12.31;73.17
73700;BME280;62005;50.082;8.988;2023-01-01T02:40:48;100546.66;;;12.29;73.41
73700;BME280;62005;50.082;8.988;2023-01-01T02:43:14;100553.50;;;12.32;73.71
73700;BME280;62005;50.082;8.988;2023-01-01T02:45:40;100537.31;;;12.25;73.62
73700;BME280;62005;50.082;8.988;2023-01-01T02:48:39;100530.72;;;12.21;74.17
73700;BME280;62005;50.082;8.988;2023-01-01T02:59:21;100577.94;;;12.43;74.00
73700;BME280;62005;50.082;8.988;2023-01-01T03:05:33;100600.84;;;12.47;74.37
73700;BME280;62005;50.082;8.988;2023-01-01T03:08:54;100544.56;;;12.13;74.29
73700;BME280;62005;50.082;8.988;2023-01-01T03:11:59;100600.84;;;12.47;74.67
73700;BME280;62005;50.082;8.988;2023-01-01T03:14:39;100580.97;;;12.35;73.96
73700;BME280;62005;50.082;8.988;2023-01-01T03:17:29;100578.50;;;12.34;73.79
73700;BME280;62005;50.082;8.988;2023-01-01T03:20:00;100592.56;;;12.42;74.04
73700;BME280;62005;50.082;8.988;2023-01-01T03:22:31;100586.53;;;12.40;74.25
73700;BME280;62005;50.082;8.988;2023-01-01T03:25:07;100597.63;;;12.39;74.18
73700;BME280;62005;50.082;8.988;2023-01-01T03:27:38;100597.25;;;12.35;73.92
73700;BME280;62005;50.082;8.988;2023-01-01T03:30:08;100599.34;;;12.33;73.39
73700;BME280;62005;50.082;8.988;2023-01-01T03:32:39;100582.06;;;12.16;73.26
73700;BME280;62005;50.082;8.988;2023-01-01T03:35:26;100597.66;;;12.21;74.40
73700;BME280;62005;50.082;8.988;2023-01-01T03:37:53;100596.19;;;12.18;74.38
73700;BME280;62005;50.082;8.988;2023-01-01T03:40:21;100591.63;;;12.19;74.65
73700;BME280;62005;50.082;8.988;2023-01-01T03:42:55;100582.34;;;12.08;74.12
73700;BME280;62005;50.082;8.988;2023-01-01T03:45:30;100595.16;;;12.19;74.57
73700;BME280;62005;50.082;8.988;2023-01-01T03:47:58;100572.13;;;12.10;74.33
73700;BME280;62005;50.082;8.988;2023-01-01T03:50:30;100587.50;;;12.16;75.31
73700;BME280;62005;50.082;8.988;2023-01-01T03:53:08;100600.13;;;12.22;75.20
73700;BME280;62005;50.082;8.988;2023-01-01T03:55:45;100605.09;;;12.25;74.85
73700;BME280;62005;50.082;8.988;2023-01-01T03:58:22;100593.63;;;12.23;75.17
73700;BME280;62005;50.082;8.988;2023-01-01T04:01:05;100604.06;;;12.26;74.86
73700;BME280;62005;50.082;8.988;2023-01-01T04:03:33;100584.19;;;12.14;74.73
73700;BME280;62005;50.082;8.988;2023-01-01T04:06:00;100607.34;;;12.28;74.66
73700;BME280;62005;50.082;8.988;2023-01-01T04:08:25;100613.59;;;12.29;75.06
73700;BME280;62005;50.082;8.988;2023-01-01T04:10:58;100579.22;;;12.11;74.44
73700;BME280;62005;50.082;8.988;2023-01-01T04:13:25;100600.72;;;12.24;74.14
73700;BME280;62005;50.082;8.988;2023-01-01T04:15:50;100604.47;;;12.23;74.37
73700;BME280;62005;50.082;8.988;2023-01-01T04:18:16;100599.75;;;12.19;74.38
73700;BME280;62005;50.082;8.988;2023-01-01T04:20:42;100600.53;;;12.08;73.71
73700;BME280;62005;50.082;8.988;2023-01-01T04:23:08;100599.69;;;12.07;73.27
73700;BME280;62005;50.082;8.988;2023-01-01T04:25:34;100584.94;;;11.85;73.54
73700;BME280;62005;50.082;8.988;2023-01-01T04:27:59;100599.84;;;11.94;73.93
73700;BME280;62005;50.082;8.988;2023-01-01T04:30:28;100582.91;;;11.80;73.46
73700;BME280;62005;50.082;8.988;2023-01-01T04:32:53;100600.28;;;11.91;73.76
73700;BME280;62005;50.082;8.988;2023-01-01T04:35:19;100598.94;;;11.82;74.21
73700;BME280;62005;50.082;8.988;2023-01-01T04:37:44;100594.19;;;11.77;74.47
73700;BME280;62005;50.082;8.988;2023-01-01T04:40:11;100582.81;;;11.69;74.25
73700;BME280;62005;50.082;8.988;2023-01-01T04:42:37;100598.47;;;11.67;74.09
73700;BME280;62005;50.082;8.988;2023-01-01T04:45:02;100599.16;;;11.56;74.29
73700;BME280;62005;50.082;8.988;2023-01-01T04:47:28;100593.59;;;11.51;74.54
73700;BME280;62005;50.082;8.988;2023-01-01T04:49:53;100606.22;;;11.57;74.49
73700;BME280;62005;50.082;8.988;2023-01-01T04:52:19;100620.22;;;11.54;75.07
73700;BME280;62005;50.082;8.988;2023-01-01T04:54:45;100619.03;;;11.50;75.11
73700;BME280;62005;50.082;8.988;2023-01-01T04:57:10;100617.34;;;11.49;75.57
73700;BME280;62005;50.082;8.988;2023-01-01T04:59:35;100609.84;;;11.51;75.80
73700;BME280;62005;50.082;8.988;2023-01-01T05:02:01;100608.19;;;11.50;76.67
73700;BME280;62005;50.082;8.988;2023-01-01T05:04:26;100615.66;;;11.54;76.70
73700;BME280;62005;50.082;8.988;2023-01-01T05:06:51;100616.47;;;11.55;76.60
73700;BME280;62005;50.082;8.988;2023-01-01T05:09:17;100619.78;;;11.57;76.42
73700;BME280;62005;50.082;8.988;2023-01-01T05:11:42;100609.31;;;11.60;76.78
73700;BME280;62005;50.082;8.988;2023-01-01T05:14:07;100612.00;;;11.67;76.70
73700;BME280;62005;50.082;8.988;2023-01-01T05:16:35;100624.66;;;11.73;76.37
73700;BME280;62005;50.082;8.988;2023-01-01T05:19:01;100622.97;;;11.72;76.42
73700;BME280;62005;50.082;8.988;2023-01-01T05:21:37;100636.22;;;11.80;76.64
73700;BME280;62005;50.082;8.988;2023-01-01T05:24:06;100634.13;;;11.82;76.56
73700;BME280;62005;50.082;8.988;2023-01-01T05:26:34;100640.78;;;11.86;76.62
73700;BME280;62005;50.082;8.988;2023-01-01T05:29:00;100626.63;;;11.84;76.44
73700;BME280;62005;50.082;8.988;2023-01-01T05:31:28;100640.69;;;11.93;76.02
73700;BME280;62005;50.082;8.988;2023-01-01T05:40:18;100615.41;;;11.80;75.93
73700;BME280;62005;50.082;8.988;2023-01-01T05:49:35;100645.13;;;12.05;75.10
73700;BME280;62005;50.082;8.988;2023-01-01T05:55:53;100673.69;;;12.26;75.23
73700;BME280;62005;50.082;8.988;2023-01-01T06:02:45;100649.53;;;12.24;74.67
73700;BME280;62005;50.082;8.988;2023-01-01T06:12:39;100669.31;;;12.43;74.45
73700;BME280;62005;50.082;8.988;2023-01-01T06:19:13;100627.31;;;12.16;74.15
73700;BME280;62005;50.082;8.988;2023-01-01T06:32:17;100686.09;;;12.51;73.62
73700;BME280;62005;50.082;8.988;2023-01-01T06:41:47;100656.59;;;12.25;73.18
73700;BME280;62005;50.082;8.988;2023-01-01T06:44:59;100637.53;;;12.14;72.76
73700;BME280;62005;50.082;8.988;2023-01-01T06:51:07;100710.06;;;12.54;72.53
73700;BME280;62005;50.082;8.988;2023-01-01T06:53:50;100709.00;;;12.55;72.71
73700;BME280;62005;50.082;8.988;2023-01-01T07:06:35;100684.91;;;12.29;72.20
73700;BME280;62005;50.082;8.988;2023-01-01T07:09:07;100666.66;;;12.18;72.34
73700;BME280;62005;50.082;8.988;2023-01-01T07:11:33;100688.19;;;12.31;72.07
73700;BME280;62005;50.082;8.988;2023-01-01T07:13:58;100666.25;;;12.21;72.31
73700;BME280;62005;50.082;8.988;2023-01-01T07:16:24;100716.22;;;12.43;71.79
73700;BME280;62005;50.082;8.988;2023-01-01T07:18:50;100729.03;;;12.54;72.02
73700;BME280;62005;50.082;8.988;2023-01-01T07:21:31;100744.84;;;12.57;71.71
73700;BME280;62005;50.082;8.988;2023-01-01T07:24:02;100745.88;;;12.56;71.40
73700;BME280;62005;50.082;8.988;2023-01-01T07:26:29;100737.59;;;12.51;72.05
73700;BME280;62005;50.082;8.988;2023-01-01T07:28:56;100735.50;;;12.53;71.76
73700;BME280;62005;50.082;8.988;2023-01-01T07:31:21;100742.13;;;12.57;71.82
73700;BME280;62005;50.082;8.988;2023-01-01T07:33:47;100725.13;;;12.50;71.15
73700;BME280;62005;50.082;8.988;2023-01-01T07:36:12;100740.47;;;12.56;71.40
73700;BME280;62005;50.082;8.988;2023-01-01T07:42:53;100702.34;;;12.33;71.14
73700;BME280;62005;50.082;8.988;2023-01-01T07:45:25;100707.78;;;12.33;71.11
73700;BME280;62005;50.082;8.988;2023-01-01T07:47:56;100731.00;;;12.47;70.99
73700;BME280;62005;50.082;8.988;2023-01-01T07:50:34;100760.34;;;12.68;71.31
73700;BME280;62005;50.082;8.988;2023-01-01T07:53:37;100749.06;;;12.53;70.88
73700;BME280;62005;50.082;8.988;2023-01-01T08:04:45;100792.75;;;12.81;70.80
73700;BME280;62005;50.082;8.988;2023-01-01T08:07:10;100788.00;;;12.77;70.55
73700;BME280;62005;50.082;8.988;2023-01-01T08:09:36;100795.63;;;12.86;70.98
73700;BME280;62005;50.082;8.988;2023-01-01T08:12:01;100801.81;;;12.93;70.54
73700;BME280;62005;50.082;8.988;2023-01-01T08:14:26;100812.56;;;13.00;70.62
73700;BME280;62005;50.082;8.988;2023-01-01T08:16:52;100800.28;;;12.97;70.75
73700;BME280;62005;50.082;8.988;2023-01-01T08:19:17;100787.50;;;13.04;70.24
73700;BME280;62005;50.082;8.988;2023-01-01T08:21:42;100788.25;;;13.12;70.67
73700;BME280;62005;50.082;8.988;2023-01-01T08:24:08;100769.25;;;13.12;70.21
73700;BME280;62005;50.082;8.988;2023-01-01T08:26:34;100767.13;;;13.14;70.54
73700;BME280;62005;50.082;8.988;2023-01-01T08:29:01;100776.25;;;13.31;70.23
73700;BME280;62005;50.082;8.988;2023-01-01T08:31:29;100788.94;;;13.37;70.20
73700;BME280;62005;50.082;8.988;2023-01-01T08:33:58;100782.44;;;13.38;70.56
73700;BME280;62005;50.082;8.988;2023-01-01T08:36:23;100799.75;;;13.55;69.73
73700;BME280;62005;50.082;8.988;2023-01-01T08:38:51;100805.31;;;13.60;68.57
73700;BME280;62005;50.082;8.988;2023-01-01T08:41:16;100786.31;;;13.60;68.65
73700;BME280;62005;50.082;8.988;2023-01-01T08:43:41;100792.22;;;13.68;69.33
73700;BME280;62005;50.082;8.988;2023-01-01T08:46:07;100798.59;;;13.74;68.75
73700;BME280;62005;50.082;8.988;2023-01-01T08:48:32;100811.84;;;13.82;68.82
73700;BME280;62005;50.082;8.988;2023-01-01T08:50:59;100807.63;;;13.86;68.00
73700;BME280;62005;50.082;8.988;2023-01-01T08:53:25;100812.59;;;13.89;67.68
73700;BME280;62005;50.082;8.988;2023-01-01T08:55:55;100811.63;;;13.95;66.85
73700;BME280;62005;50.082;8.988;2023-01-01T08:58:20;100799.97;;;13.94;67.43
73700;BME280;62005;50.082;8.988;2023-01-01T09:00:45;100809.06;;;14.00;67.25
73700;BME280;62005;50.082;8.988;2023-01-01T09:03:11;100813.22;;;14.02;67.71
73700;BME280;62005;50.082;8.988;2023-01-01T09:05:36;100813.56;;;14.06;67.37
73700;BME280;62005;50.082;8.988;2023-01-01T09:08:04;100810.84;;;14.06;67.17
73700;BME280;62005;50.082;8.988;2023-01-01T09:10:29;100823.63;;;14.17;67.65
73700;BME280;62005;50.082;8.988;2023-01-01T09:12:55;100817.13;;;14.18;67.15
73700;BME280;62005;50.082;8.988;2023-01-01T09:15:20;100816.19;;;14.24;67.01
73700;BME280;62005;50.082;8.988;2023-01-01T09:17:45;100818.59;;;14.32;66.89
73700;BME280;62005;50.082;8.988;2023-01-01T09:20:11;100832.31;;;14.37;67.07
73700;BME280;62005;50.082;8.988;2023-01-01T09:22:36;100826.38;;;14.40;66.95
73700;BME280;62005;50.082;8.988;2023-01-01T09:25:01;100822.63;;;14.41;66.18
73700;BME280;62005;50.082;8.988;2023-01-01T09:27:28;100824.25;;;14.42;66.23
73700;BME280;62005;50.082;8.988;2023-01-01T09:29:53;100834.91;;;14.55;66.11
73700;BME280;62005;50.082;8.988;2023-01-01T09:32:18;100821.66;;;14.47;66.13
73700;BME280;62005;50.082;8.988;2023-01-01T09:34:44;100834.91;;;14.55;65.42
73700;BME280;62005;50.082;8.988;2023-01-01T09:37:09;100836.09;;;14.59;66.02
73700;BME280;62005;50.082;8.988;2023-01-01T09:39:34;100853.00;;;14.61;65.82
73700;BME280;62005;50.082;8.988;2023-01-01T09:45:27;100879.97;;;14.86;64.63
73700;BME280;62005;50.082;8.988;2023-01-01T09:47:59;100880.31;;;14.89;65.09
73700;BME280;62005;50.082;8.988;2023-01-01T09:50:43;100856.53;;;14.85;64.56
73700;BME280;62005;50.082;8.988;2023-01-01T09:53:29;100877.25;;;14.97;64.56
73700;BME280;62005;50.082;8.988;2023-01-01T09:58:26;100870.09;;;15.08;64.41
73700;BME280;62005;50.082;8.988;2023-01-01T10:01:24;100826.97;;;14.77;63.90
73700;BME280;62005;50.082;8.988;2023-01-01T10:13:51;100814.84;;;14.96;64.42
73700;BME280;62005;50.082;8.988;2023-01-01T10:16:45;100797.22;;;14.98;63.77
73700;BME280;62005;50.082;8.988;2023-01-01T10:35:19;100796.31;;;15.21;62.53
73700;BME280;62005;50.082;8.988;2023-01-01T10:38:24;100794.53;;;15.26;62.48
73700;BME280;62005;50.082;8.988;2023-01-01T10:44:28;100833.78;;;15.53;61.76
73700;BME280;62005;50.082;8.988;2023-01-01T10:46:59;100833.63;;;15.60;62.45
73700;BME280;62005;50.082;8.988;2023-01-01T10:49:28;100837.75;;;15.62;62.99
73700;BME280;62005;50.082;8.988;2023-01-01T10:52:04;100844.38;;;15.67;61.59
73700;BME280;62005;50.082;8.988;2023-01-01T11:19:43;100794.94;;;15.46;62.28
73700;BME280;62005;50.082;8.988;2023-01-01T11:35:24;100770.47;;;15.80;61.39
73700;BME280;62005;50.082;8.988;2023-01-01T11:37:52;100801.34;;;16.02;60.88
73700;BME280;62005;50.082;8.988;2023-01-01T11:40:22;100788.06;;;16.05;60.50
73700;BME280;62005;50.082;8.988;2023-01-01T11:42:55;100777.97;;;16.06;60.05
73700;BME280;62005;50.082;8.988;2023-01-01T11:45:27;100779.28;;;16.20;60.49
73700;BME280;62005;50.082;8.988;2023-01-01T11:55:08;100776.28;;;16.38;59.14
73700;BME280;62005;50.082;8.988;2023-01-01T12:04:02;100734.84;;;16.19;59.57
73700;BME280;62005;50.082;8.988;2023-01-01T12:16:58;100722.94;;;16.09;59.99
73700;BME280;62005;50.082;8.988;2023-01-01T12:22:22;100751.53;;;16.23;59.99
73700;BME280;62005;50.082;8.988;2023-01-01T12:24:48;100759.78;;;16.28;60.16
73700;BME280;62005;50.082;8.988;2023-01-01T13:01:19;100746.72;;;16.13;60.64
73700;BME280;62005;50.082;8.988;2023-01-01T13:03:52;100750.03;;;16.15;60.28
73700;BME280;62005;50.082;8.988;2023-01-01T13:09:41;100724.44;;;16.00;60.88
73700;BME280;62005;50.082;8.988;2023-01-01T13:12:52;100684.78;;;15.76;60.97
73700;BME280;62005;50.082;8.988;2023-01-01T13:21:27;100756.84;;;16.13;61.12
73700;BME280;62005;50.082;8.988;2023-01-01T13:24:34;100739.13;;;15.99;61.09
73700;BME280;62005;50.082;8.988;2023-01-01T13:27:08;100725.44;;;15.94;61.42
73700;BME280;62005;50.082;8.988;2023-01-01T13:40:29;100725.09;;;15.74;61.32
73700;BME280;62005;50.082;8.988;2023-01-01T13:43:17;100726.75;;;15.75;61.59
73700;BME280;62005;50.082;8.988;2023-01-01T13:45:52;100724.63;;;15.77;61.77
73700;BME280;62005;50.082;8.988;2023-01-01T13:53:31;100775.69;;;15.98;61.88
73700;BME280;62005;50.082;8.988;2023-01-01T13:59:04;100769.06;;;15.94;62.07
73700;BME280;62005;50.082;8.988;2023-01-01T14:01:41;100774.50;;;15.94;61.85
73700;BME280;62005;50.082;8.988;2023-01-01T14:04:24;100775.59;;;15.93;62.09
73700;BME280;62005;50.082;8.988;2023-01-01T14:06:56;100774.66;;;15.87;61.94
73700;BME280;62005;50.082;8.988;2023-01-01T14:09:23;100781.22;;;15.86;62.68
73700;BME280;62005;50.082;8.988;2023-01-01T14:11:49;100788.31;;;15.87;62.18
73700;BME280;62005;50.082;8.988;2023-01-01T14:14:18;100777.66;;;15.86;61.97
73700;BME280;62005;50.082;8.988;2023-01-01T14:16:50;100776.56;;;15.87;62.13
73700;BME280;62005;50.082;8.988;2023-01-01T14:19:16;100782.00;;;15.87;62.59
73700;BME280;62005;50.082;8.988;2023-01-01T14:21:53;100744.25;;;15.62;62.07
73700;BME280;62005;50.082;8.988;2023-01-01T14:24:25;100766.81;;;15.74;61.87
73700;BME280;62005;50.082;8.988;2023-01-01T14:26:53;100770.38;;;15.75;62.33
73700;BME280;62005;50.082;8.988;2023-01-01T14:29:28;100787.88;;;15.79;62.20
73700;BME280;62005;50.082;8.988;2023-01-01T14:31:57;100772.53;;;15.73;62.18
73700;BME280;62005;50.082;8.988;2023-01-01T14:34:32;100750.94;;;15.54;62.00
73700;BME280;62005;50.082;8.988;2023-01-01T14:37:01;100782.09;;;15.75;62.57
73700;BME280;62005;50.082;8.988;2023-01-01T14:39:33;100776.88;;;15.74;62.45
73700;BME280;62005;50.082;8.988;2023-01-01T14:42:16;100739.38;;;15.47;63.00
73700;BME280;62005;50.082;8.988;2023-01-01T14:44:48;100761.44;;;15.62;63.08
73700;BME280;62005;50.082;8.988;2023-01-01T14:47:30;100774.47;;;15.60;63.36
73700;BME280;62005;50.082;8.988;2023-01-01T14:50:34;100788.19;;;15.65;63.70
73700;BME280;62005;50.082;8.988;2023-01-01T14:53:05;100790.34;;;15.63;63.45
73700;BME280;62005;50.082;8.988;2023-01-01T14:55:38;100788.69;;;15.62;63.49
73700;BME280;62005;50.082;8.988;2023-01-01T14:58:04;100767.69;;;15.46;63.98
73700;BME280;62005;50.082;8.988;2023-01-01T15:00:32;100740.03;;;15.26;64.28
73700;BME280;62005;50.082;8.988;2023-01-01T15:03:05;100796.78;;;15.57;64.82
73700;BME280;62005;50.082;8.988;2023-01-01T15:05:34;100791.81;;;15.54;65.37
73700;BME280;62005;50.082;8.988;2023-01-01T15:08:04;100800.50;;;15.51;65.75
73700;BME280;62005;50.082;8.988;2023-01-01T15:10:34;100785.00;;;15.40;65.51
73700;BME280;62005;50.082;8.988;2023-01-01T15:13:03;100775.06;;;15.34;65.94
73700;BME280;62005;50.082;8.988;2023-01-01T15:15:50;100773.88;;;15.30;64.88
73700;BME280;62005;50.082;8.988;2023-01-01T15:18:38;100780.50;;;15.34;64.92
73700;BME280;62005;50.082;8.988;2023-01-01T15:23:52;100765.63;;;15.25;64.71
73700;BME280;62005;50.082;8.988;2023-01-01T15:31:56;100784.41;;;15.10;65.03
73700;BME280;62005;50.082;8.988;2023-01-01T15:34:28;100782.72;;;15.09;65.09
73700;BME280;62005;50.082;8.988;2023-01-01T15:36:56;100777.78;;;15.06;64.72
73700;BME280;62005;50.082;8.988;2023-01-01T15:39:30;100782.03;;;15.02;65.03
73700;BME280;62005;50.082;8.988;2023-01-01T15:41:56;100774.94;;;15.01;64.75
73700;BME280;62005;50.082;8.988;2023-01-01T15:44:28;100778.16;;;14.98;65.31
73700;BME280;62005;50.082;8.988;2023-01-01T15:47:11;100779.03;;;14.87;64.97
73700;BME280;62005;50.082;8.988;2023-01-01T15:49:38;100775.72;;;14.85;64.91
73700;BME280;62005;50.082;8.988;2023-01-01T15:52:12;100783.16;;;14.90;65.01
73700;BME280;62005;50.082;8.988;2023-01-01T15:54:44;100765.75;;;14.79;64.76
73700;BME280;62005;50.082;8.988;2023-01-01T15:57:17;100772.41;;;14.83;64.99
73700;BME280;62005;50.082;8.988;2023-01-01T15:59:43;100765.75;;;14.79;65.03
73700;BME280;62005;50.082;8.988;2023-01-01T16:02:15;100766.84;;;14.78;65.43
73700;BME280;62005;50.082;8.988;2023-01-01T16:04:45;100764.59;;;14.75;65.23
73700;BME280;62005;50.082;8.988;2023-01-01T16:07:29;100762.38;;;14.72;64.88
73700;BME280;62005;50.082;8.988;2023-01-01T16:09:55;100742.63;;;14.65;65.04
73700;BME280;62005;50.082;8.988;2023-01-01T16:12:21;100745.84;;;14.62;65.00
73700;BME280;62005;50.082;8.988;2023-01-01T16:14:46;100763.91;;;14.68;65.18
73700;BME280;62005;50.082;8.988;2023-01-01T16:17:14;100767.22;;;14.70;65.03
73700;BME280;62005;50.082;8.988;2023-01-01T16:19:40;100762.75;;;14.64;65.17
73700;BME280;62005;50.082;8.988;2023-01-01T16:22:08;100762.25;;;14.67;65.20
73700;BME280;62005;50.082;8.988;2023-01-01T16:24:35;100736.13;;;14.55;64.97
73700;BME280;62005;50.082;8.988;2023-01-01T16:27:01;100744.16;;;14.61;65.68
73700;BME280;62005;50.082;8.988;2023-01-01T16:29:26;100752.81;;;14.58;65.13
73700;BME280;62005;50.082;8.988;2023-01-01T16:31:51;100748.56;;;14.62;65.33
73700;BME280;62005;50.082;8.988;2023-01-01T16:34:17;100742.63;;;14.65;65.34
73700;BME280;62005;50.082;8.988;2023-01-01T16:36:43;100744.16;;;14.61;65.10
73700;BME280;62005;50.082;8.988;2023-01-01T16:39:09;100747.22;;;14.65;65.17
73700;BME280;62005;50.082;8.988;2023-01-01T16:41:35;100735.53;;;14.64;65.09
73700;BME280;62005;50.082;8.988;2023-01-01T16:44:01;100721.72;;;14.54;65.67
73700;BME280;62005;50.082;8.988;2023-01-01T16:46:27;100735.75;;;14.63;65.00
73700;BME280;62005;50.082;8.988;2023-01-01T16:48:53;100746.97;;;14.66;64.84
73700;BME280;62005;50.082;8.988;2023-01-01T16:51:21;100745.59;;;14.64;65.04
73700;BME280;62005;50.082;8.988;2023-01-01T16:53:47;100691.84;;;14.31;65.26
73700;BME280;62005;50.082;8.988;2023-01-01T16:56:13;100750.19;;;14.63;64.53
73700;BME280;62005;50.082;8.988;2023-01-01T16:58:39;100745.84;;;14.62;64.94
73700;BME280;62005;50.082;8.988;2023-01-01T17:01:05;100739.78;;;14.60;64.88
73700;BME280;62005;50.082;8.988;2023-01-01T17:03:30;100749.03;;;14.59;64.69
73700;BME280;62005;50.082;8.988;2023-01-01T17:05:56;100745.72;;;14.57;64.88
73700;BME280;62005;50.082;8.988;2023-01-01T17:08:21;100747.38;;;14.58;65.01
73700;BME280;62005;50.082;8.988;2023-01-01T17:11:00;100719.94;;;14.48;65.30
73700;BME280;62005;50.082;8.988;2023-01-01T17:13:26;100736.13;;;14.55;65.07
73700;BME280;62005;50.082;8.988;2023-01-01T17:15:58;100727.06;;;14.49;64.97
73700;BME280;62005;50.082;8.988;2023-01-01T17:18:23;100724.44;;;14.54;65.23
73700;BME280;62005;50.082;8.988;2023-01-01T17:20:48;100726.56;;;14.52;65.10
73700;BME280;62005;50.082;8.988;2023-01-01T17:23:14;100663.19;;;14.17;65.14
73700;BME280;62005;50.082;8.988;2023-01-01T17:25:40;100716.16;;;14.49;65.76
73700;BME280;62005;50.082;8.988;2023-01-01T17:28:05;100713.34;;;14.44;66.14
73700;BME280;62005;50.082;8.988;2023-01-01T17:30:34;100700.78;;;14.43;65.69
73700;BME280;62005;50.082;8.988;2023-01-01T17:32:59;100719.94;;;14.48;65.40
73700;BME280;62005;50.082;8.988;2023-01-01T17:35:25;100689.69;;;14.33;65.24
73700;BME280;62005;50.082;8.988;2023-01-01T17:37:50;100708.84;;;14.38;65.00
73700;BME280;62005;50.082;8.988;2023-01-01T17:40:16;100679.78;;;14.27;64.95
73700;BME280;62005;50.082;8.988;2023-01-01T17:42:41;100707.91;;;14.44;64.72
73700;BME280;62005;50.082;8.988;2023-01-01T17:45:07;100669.84;;;14.21;64.60
73700;BME280;62005;50.082;8.988;2023-01-01T17:47:33;100688.25;;;14.42;64.70
73700;BME280;62005;50.082;8.988;2023-01-01T17:49:58;100681.19;;;14.41;64.41
73700;BME280;62005;50.082;8.988;2023-01-01T17:52:24;100685.53;;;14.42;64.43